sensor_id;sensor_type;location;lat;lon;timestamp;temperature;humidity
21261;DHT22;10788;47.930;9.766;2023-11-21T00:00:00;7.70;99.90
21261;DHT22;10788;47.930;9.766;2023-11-21T00:02:26;7.60;99.90
21261;DHT22;10788;47.930;9.766;2023-11-21T00:04:53;7.60;99.90
21261;DHT22;10788;47.930;9.766;2023-11-21T00:07:19;7.60;99.90
21261;DHT22;10788;47.930;9.766;2023-11-21T00:09:46;7.60;99.90
21261;DHT22;10788;47.930;9.766;2023-11-21T00:12:12;7.50;99.90
21261;DHT22;10788;47.930;9.766;2023-11-21T00:14:39;7.50;99.90
21261;DHT22;10788;47.930;9.766;2023-11-21T00:17:05;7.60;99.90
21261;DHT22;10788;47.930;9.766;2023-11-21T00:19:32;7.50;99.90
21261;DHT22;10788;47.930;9.766;2023-11-21T00:21:58;7.50;99.90
21261;DHT22;10788;47.930;9.766;2023-11-21T00:24:24;7.50;99.90
21261;DHT22;10788;47.930;9.766;2023-11-21T00:26:51;7.40;99.90
21261;DHT22;10788;47.930;9.766;2023-11-21T00:29:16;7.30;99.90
21261;DHT22;10788;47.930;9.766;2023-11-21T00:31:44;7.30;99.90
21261;DHT22;10788;47.930;9.766;2023-11-21T00:34:11;7.30;99.90
21261;DHT22;10788;47.930;9.766;2023-11-21T00:36:37;7.40;99.90
21261;DHT22;10788;47.930;9.766;2023-11-21T00:39:03;7.20;99.90
21261;DHT22;10788;47.930;9.766;2023-11-21T00:41:31;7.20;99.90
21261;DHT22;10788;47.930;9.766;2023-11-21T00:43:57;7.20;99.90
21261;DHT22;10788;47.930;9.766;2023-11-21T00:46:22;7.40;99.90
21261;DHT22;10788;47.930;9.766;2023-11-21T00:48:49;7.30;99.90
21261;DHT22;10788;47.930;9.766;2023-11-21T00:51:15;7.20;99.90
21261;DHT22;10788;47.930;9.766;2023-11-21T00:53:41;7.20;99.90
21261;DHT22;10788;47.930;9.766;2023-11-21T00:56:06;7.10;99.90
21261;DHT22;10788;47.930;9.766;2023-11-21T00:58:33;7.10;99.90
21261;DHT22;10788;47.930;9.766;2023-11-21T01:00:59;7.20;99.90
21261;DHT22;10788;47.930;9.766;2023-11-21T01:03:25;7.10;99.90
21261;DHT22;10788;47.930;9.766;2023-11-21T01:05:50;7.10;99.90
21261;DHT22;10788;47.930;9.766;2023-11-21T01:08:16;7.00;99.90
21261;DHT22;10788;47.930;9.766;2023-11-21T01:10:42;7.00;99.90
21261;DHT22;10788;47.930;9.766;2023-11-21T01:13:07;6.90;99.90
21261;DHT22;10788;47.930;9.766;2023-11-21T01:15:36;6.90;99.90
21261;DHT22;10788;47.930;9.766;2023-11-21T01:18:02;7.00;99.90
21261;DHT22;10788;47.930;9.766;2023-11-21T01:20:29;6.90;99.90
21261;DHT22;10788;47.930;9.766;2023-11-21T01:22:54;7.00;99.90
21261;DHT22;10788;47.930;9.766;2023-11-21T01:25:20;6.90;99.90
21261;DHT22;10788;47.930;9.766;2023-11-21T01:27:46;7.00;99.90
21261;DHT22;10788;47.930;9.766;2023-11-21T01:30:13;6.90;99.90
21261;DHT22;10788;47.930;9.766;2023-11-21T01:32:39;6.90;99.90
21261;DHT22;10788;47.930;9.766;2023-11-21T01:35:05;6.90;99.90
21261;DHT22;10788;47.930;9.766;2023-11-21T01:37:32;6.90;99.90
21261;DHT22;10788;47.930;9.766;2023-11-21T01:39:58;6.80;99.90
21261;DHT22;10788;47.930;9.766;2023-11-21T01:42:24;6.80;99.90
21261;DHT22;10788;47.930;9.766;2023-11-21T01:44:50;6.80;99.90
21261;DHT22;10788;47.930;9.766;2023-11-21T01:47:16;6.80;99.90
21261;DHT22;10788;47.930;9.766;2023-11-21T01:49:45;6.80;99.90
21261;DHT22;10788;47.930;9.766;2023-11-21T01:52:12;6.80;99.90
21261;DHT22;10788;47.930;9.766;2023-11-21T01:54:38;6.80;99.90
21261;DHT22;10788;47.930;9.766;2023-11-21T01:57:05;6.70;99.90
21261;DHT22;10788;47.930;9.766;2023-11-21T01:59:35;6.70;99.90
21261;DHT22;10788;47.930;9.766;2023-11-21T02:02:05;6.80;99.90
21261;DHT22;10788;47.930;9.766;2023-11-21T02:04:35;6.80;99.90
21261;DHT22;10788;47.930;9.766;2023-11-21T02:07:04;6.70;99.90
21261;DHT22;10788;47.930;9.766;2023-11-21T02:09:32;6.70;99.90
21261;DHT22;10788;47.930;9.766;2023-11-21T02:11:59;6.70;99.90
21261;DHT22;10788;47.930;9.766;2023-11-21T02:14:26;6.70;99.90
21261;DHT22;10788;47.930;9.766;2023-11-21T02:16:53;6.70;99.90
21261;DHT22;10788;47.930;9.766;2023-11-21T02:19:20;6.70;99.90
21261;DHT22;10788;47.930;9.766;2023-11-21T02:21:54;6.70;99.90
21261;DHT22;10788;47.930;9.766;2023-11-21T02:24:21;6.70;99.90
21261;DHT22;10788;47.930;9.766;2023-11-21T02:26:48;6.70;99.90
21261;DHT22;10788;47.930;9.766;2023-11-21T02:29:15;6.70;99.90
21261;DHT22;10788;47.930;9.766;2023-11-21T02:31:43;6.60;99.90
21261;DHT22;10788;47.930;9.766;2023-11-21T02:34:17;6.60;99.90
21261;DHT22;10788;47.930;9.766;2023-11-21T02:36:47;6.50;99.90
21261;DHT22;10788;47.930;9.766;2023-11-21T02:39:16;6.50;99.90
21261;DHT22;10788;47.930;9.766;2023-11-21T02:41:43;6.50;99.90
21261;DHT22;10788;47.930;9.766;2023-11-21T02:44:09;6.50;99.90
21261;DHT22;10788;47.930;9.766;2023-11-21T02:46:36;6.40;99.90
21261;DHT22;10788;47.930;9.766;2023-11-21T02:49:05;6.40;99.90
21261;DHT22;10788;47.930;9.766;2023-11-21T02:51:36;6.50;99.90
21261;DHT22;10788;47.930;9.766;2023-11-21T02:54:01;6.50;99.90
21261;DHT22;10788;47.930;9.766;2023-11-21T02:56:30;6.50;99.90
21261;DHT22;10788;47.930;9.766;2023-11-21T02:58:56;6.50;99.90
21261;DHT22;10788;47.930;9.766;2023-11-21T03:01:22;6.50;99.90
21261;DHT22;10788;47.930;9.766;2023-11-21T03:03:49;6.50;99.90
21261;DHT22;10788;47.930;9.766;2023-11-21T03:06:17;6.50;99.90
21261;DHT22;10788;47.930;9.766;2023-11-21T03:08:43;6.50;99.90
21261;DHT22;10788;47.930;9.766;2023-11-21T03:11:08;6.50;99.90
21261;DHT22;10788;47.930;9.766;2023-11-21T03:13:34;6.40;99.90
21261;DHT22;10788;47.930;9.766;2023-11-21T03:15:59;6.50;99.90
21261;DHT22;10788;47.930;9.766;2023-11-21T03:18:25;6.40;99.90
21261;DHT22;10788;47.930;9.766;2023-11-21T03:20:52;6.40;99.90
21261;DHT22;10788;47.930;9.766;2023-11-21T03:23:18;6.40;99.90
21261;DHT22;10788;47.930;9.766;2023-11-21T03:25:44;6.40;99.90
21261;DHT22;10788;47.930;9.766;2023-11-21T03:28:09;6.30;99.90
21261;DHT22;10788;47.930;9.766;2023-11-21T03:30:35;6.30;99.90
21261;DHT22;10788;47.930;9.766;2023-11-21T03:33:01;6.30;99.90
21261;DHT22;10788;47.930;9.766;2023-11-21T03:35:26;6.20;99.90
21261;DHT22;10788;47.930;9.766;2023-11-21T03:37:53;6.20;99.90
21261;DHT22;10788;47.930;9.766;2023-11-21T03:40:18;6.20;99.90
21261;DHT22;10788;47.930;9.766;2023-11-21T03:42:44;6.10;99.90
21261;DHT22;10788;47.930;9.766;2023-11-21T03:45:10;6.10;99.90
21261;DHT22;10788;47.930;9.766;2023-11-21T03:47:37;6.10;99.90
21261;DHT22;10788;47.930;9.766;2023-11-21T03:50:03;6.10;99.90
21261;DHT22;10788;47.930;9.766;2023-11-21T03:52:29;6.10;99.90
21261;DHT22;10788;47.930;9.766;2023-11-21T03:54:55;6.10;99.90
21261;DHT22;10788;47.930;9.766;2023-11-21T03:57:21;6.20;99.90
21261;DHT22;10788;47.930;9.766;2023-11-21T03:59:47;6.00;99.90
21261;DHT22;10788;47.930;9.766;2023-11-21T04:02:12;6.10;99.90
21261;DHT22;10788;47.930;9.766;2023-11-21T04:04:38;6.00;99.90
21261;DHT22;10788;47.930;9.766;2023-11-21T04:07:04;6.00;99.90
21261;DHT22;10788;47.930;9.766;2023-11-21T04:09:30;6.00;99.90
21261;DHT22;10788;47.930;9.766;2023-11-21T04:11:55;6.00;99.90
21261;DHT22;10788;47.930;9.766;2023-11-21T04:14:21;5.90;99.90
21261;DHT22;10788;47.930;9.766;2023-11-21T04:16:47;5.90;99.90
21261;DHT22;10788;47.930;9.766;2023-11-21T04:19:14;6.00;99.90
21261;DHT22;10788;47.930;9.766;2023-11-21T04:21:42;5.90;99.90
21261;DHT22;10788;47.930;9.766;2023-11-21T04:24:09;6.00;99.90
21261;DHT22;10788;47.930;9.766;2023-11-21T04:26:34;5.90;99.90
21261;DHT22;10788;47.930;9.766;2023-11-21T04:29:00;5.90;99.90
21261;DHT22;10788;47.930;9.766;2023-11-21T04:31:25;5.80;99.90
21261;DHT22;10788;47.930;9.766;2023-11-21T04:33:51;5.90;99.90
21261;DHT22;10788;47.930;9.766;2023-11-21T04:36:17;5.80;99.90
21261;DHT22;10788;47.930;9.766;2023-11-21T04:38:42;5.80;99.90
21261;DHT22;10788;47.930;9.766;2023-11-21T04:41:08;5.80;99.90
21261;DHT22;10788;47.930;9.766;2023-11-21T04:43:34;5.70;99.90
21261;DHT22;10788;47.930;9.766;2023-11-21T04:45:59;5.60;99.90
21261;DHT22;10788;47.930;9.766;2023-11-21T04:48:27;5.70;99.90
21261;DHT22;10788;47.930;9.766;2023-11-21T04:50:52;5.70;99.90
21261;DHT22;10788;47.930;9.766;2023-11-21T04:53:18;5.70;99.90
21261;DHT22;10788;47.930;9.766;2023-11-21T04:55:44;5.70;99.90
21261;DHT22;10788;47.930;9.766;2023-11-21T04:58:10;5.70;99.90
21261;DHT22;10788;47.930;9.766;2023-11-21T05:00:36;5.60;99.90
21261;DHT22;10788;47.930;9.766;2023-11-21T05:03:02;5.60;99.90
21261;DHT22;10788;47.930;9.766;2023-11-21T05:05:29;5.60;99.90
21261;DHT22;10788;47.930;9.766;2023-11-21T05:07:57;5.50;99.90
21261;DHT22;10788;47.930;9.766;2023-11-21T05:10:23;5.60;99.90
21261;DHT22;10788;47.930;9.766;2023-11-21T05:12:49;5.50;99.90
21261;DHT22;10788;47.930;9.766;2023-11-21T05:15:16;5.50;99.90
21261;DHT22;10788;47.930;9.766;2023-11-21T05:17:43;5.50;99.90
21261;DHT22;10788;47.930;9.766;2023-11-21T05:20:15;5.60;99.90
21261;DHT22;10788;47.930;9.766;2023-11-21T05:22:45;5.60;99.90
21261;DHT22;10788;47.930;9.766;2023-11-21T05:25:11;5.60;99.90
21261;DHT22;10788;47.930;9.766;2023-11-21T05:27:37;5.50;99.90
21261;DHT22;10788;47.930;9.766;2023-11-21T05:30:05;5.50;99.90
21261;DHT22;10788;47.930;9.766;2023-11-21T05:32:32;5.50;99.90
21261;DHT22;10788;47.930;9.766;2023-11-21T05:34:57;5.50;99.90
21261;DHT22;10788;47.930;9.766;2023-11-21T05:37:23;5.60;99.90
21261;DHT22;10788;47.930;9.766;2023-11-21T05:39:51;5.60;99.90
21261;DHT22;10788;47.930;9.766;2023-11-21T05:42:16;5.60;99.90
21261;DHT22;10788;47.930;9.766;2023-11-21T05:44:42;5.70;99.90
21261;DHT22;10788;47.930;9.766;2023-11-21T05:47:11;5.70;99.90
21261;DHT22;10788;47.930;9.766;2023-11-21T05:49:37;5.60;99.90
21261;DHT22;10788;47.930;9.766;2023-11-21T05:52:02;5.60;99.90
21261;DHT22;10788;47.930;9.766;2023-11-21T05:54:28;5.70;99.90
21261;DHT22;10788;47.930;9.766;2023-11-21T05:56:54;5.80;99.90
21261;DHT22;10788;47.930;9.766;2023-11-21T05:59:20;5.80;99.90
21261;DHT22;10788;47.930;9.766;2023-11-21T06:01:46;5.70;99.90
21261;DHT22;10788;47.930;9.766;2023-11-21T06:04:11;5.70;99.90
21261;DHT22;10788;47.930;9.766;2023-11-21T06:06:38;5.60;99.90
21261;DHT22;10788;47.930;9.766;2023-11-21T06:09:04;5.60;99.90
21261;DHT22;10788;47.930;9.766;2023-11-21T06:11:31;5.60;99.90
21261;DHT22;10788;47.930;9.766;2023-11-21T06:13:57;5.60;99.90
21261;DHT22;10788;47.930;9.766;2023-11-21T06:16:23;5.70;99.90
21261;DHT22;10788;47.930;9.766;2023-11-21T06:18:49;5.70;99.90
21261;DHT22;10788;47.930;9.766;2023-11-21T06:21:15;5.60;99.90
21261;DHT22;10788;47.930;9.766;2023-11-21T06:23:42;5.50;99.90
21261;DHT22;10788;47.930;9.766;2023-11-21T06:26:08;5.50;99.90
21261;DHT22;10788;47.930;9.766;2023-11-21T06:28:35;5.60;99.90
21261;DHT22;10788;47.930;9.766;2023-11-21T06:31:01;5.60;99.90
21261;DHT22;10788;47.930;9.766;2023-11-21T06:33:34;5.60;99.90
21261;DHT22;10788;47.930;9.766;2023-11-21T06:36:00;5.60;99.90
21261;DHT22;10788;47.930;9.766;2023-11-21T06:38:28;5.70;99.90
21261;DHT22;10788;47.930;9.766;2023-11-21T06:40:56;5.70;99.90
21261;DHT22;10788;47.930;9.766;2023-11-21T06:43:22;5.70;99.90
21261;DHT22;10788;47.930;9.766;2023-11-21T06:45:47;5.70;99.90
21261;DHT22;10788;47.930;9.766;2023-11-21T06:48:13;5.70;99.90
21261;DHT22;10788;47.930;9.766;2023-11-21T06:50:39;5.60;99.90
21261;DHT22;10788;47.930;9.766;2023-11-21T06:53:04;5.70;99.90
21261;DHT22;10788;47.930;9.766;2023-11-21T06:55:32;5.70;99.90
21261;DHT22;10788;47.930;9.766;2023-11-21T06:57:58;5.70;99.90
21261;DHT22;10788;47.930;9.766;2023-11-21T07:00:25;5.80;99.90
21261;DHT22;10788;47.930;9.766;2023-11-21T07:02:52;5.80;99.90
21261;DHT22;10788;47.930;9.766;2023-11-21T07:05:18;5.80;99.90
21261;DHT22;10788;47.930;9.766;2023-11-21T07:07:46;5.80;99.90
21261;DHT22;10788;47.930;9.766;2023-11-21T07:10:13;5.80;99.90
21261;DHT22;10788;47.930;9.766;2023-11-21T07:12:41;5.80;99.90
21261;DHT22;10788;47.930;9.766;2023-11-21T07:15:07;5.70;99.90
21261;DHT22;10788;47.930;9.766;2023-11-21T07:17:35;5.80;99.90
21261;DHT22;10788;47.930;9.766;2023-11-21T07:20:01;5.80;99.90
21261;DHT22;10788;47.930;9.766;2023-11-21T07:22:27;5.80;99.90
21261;DHT22;10788;47.930;9.766;2023-11-21T07:24:52;5.80;99.90
21261;DHT22;10788;47.930;9.766;2023-11-21T07:27:18;5.80;99.90
21261;DHT22;10788;47.930;9.766;2023-11-21T07:29:44;5.80;99.90
21261;DHT22;10788;47.930;9.766;2023-11-21T07:32:10;5.80;99.90
21261;DHT22;10788;47.930;9.766;2023-11-21T07:34:36;5.80;99.90
21261;DHT22;10788;47.930;9.766;2023-11-21T07:37:02;5.90;99.90
21261;DHT22;10788;47.930;9.766;2023-11-21T07:39:28;5.80;99.90
21261;DHT22;10788;47.930;9.766;2023-11-21T07:41:54;5.80;99.90
21261;DHT22;10788;47.930;9.766;2023-11-21T07:44:19;5.80;99.90
21261;DHT22;10788;47.930;9.766;2023-11-21T07:46:46;5.80;99.90
21261;DHT22;10788;47.930;9.766;2023-11-21T07:49:12;5.80;99.90
21261;DHT22;10788;47.930;9.766;2023-11-21T07:51:41;5.80;99.90
21261;DHT22;10788;47.930;9.766;2023-11-21T07:54:07;5.80;99.90
21261;DHT22;10788;47.930;9.766;2023-11-21T07:56:33;5.90;99.90
21261;DHT22;10788;47.930;9.766;2023-11-21T07:58:58;5.90;99.90
21261;DHT22;10788;47.930;9.766;2023-11-21T08:01:24;5.90;99.90
21261;DHT22;10788;47.930;9.766;2023-11-21T08:03:50;5.90;99.90
21261;DHT22;10788;47.930;9.766;2023-11-21T08:06:17;6.00;99.90
21261;DHT22;10788;47.930;9.766;2023-11-21T08:08:43;6.20;99.90
21261;DHT22;10788;47.930;9.766;2023-11-21T08:11:08;6.00;99.90
21261;DHT22;10788;47.930;9.766;2023-11-21T08:13:35;6.00;99.90
21261;DHT22;10788;47.930;9.766;2023-11-21T08:16:01;6.00;99.90
21261;DHT22;10788;47.930;9.766;2023-11-21T08:18:30;6.00;99.90
21261;DHT22;10788;47.930;9.766;2023-11-21T08:20:56;6.10;99.90
21261;DHT22;10788;47.930;9.766;2023-11-21T08:23:22;6.10;99.90
21261;DHT22;10788;47.930;9.766;2023-11-21T08:25:52;6.10;99.90
21261;DHT22;10788;47.930;9.766;2023-11-21T08:28:18;6.10;99.90
21261;DHT22;10788;47.930;9.766;2023-11-21T08:30:43;6.20;99.90
21261;DHT22;10788;47.930;9.766;2023-11-21T08:33:09;6.20;99.90
21261;DHT22;10788;47.930;9.766;2023-11-21T08:35:37;6.30;99.90
21261;DHT22;10788;47.930;9.766;2023-11-21T08:38:03;6.30;99.90
21261;DHT22;10788;47.930;9.766;2023-11-21T08:40:29;6.30;99.90
21261;DHT22;10788;47.930;9.766;2023-11-21T08:42:55;6.40;99.90
21261;DHT22;10788;47.930;9.766;2023-11-21T08:45:24;6.40;99.90
21261;DHT22;10788;47.930;9.766;2023-11-21T08:47:51;6.40;99.90
21261;DHT22;10788;47.930;9.766;2023-11-21T08:50:17;6.40;99.90
21261;DHT22;10788;47.930;9.766;2023-11-21T08:52:44;6.40;99.90
21261;DHT22;10788;47.930;9.766;2023-11-21T08:55:11;6.40;99.90
21261;DHT22;10788;47.930;9.766;2023-11-21T08:57:41;6.50;99.90
21261;DHT22;10788;47.930;9.766;2023-11-21T09:00:08;6.40;99.90
21261;DHT22;10788;47.930;9.766;2023-11-21T09:02:37;6.40;99.90
21261;DHT22;10788;47.930;9.766;2023-11-21T09:05:04;6.50;99.90
21261;DHT22;10788;47.930;9.766;2023-11-21T09:07:30;6.50;99.90
21261;DHT22;10788;47.930;9.766;2023-11-21T09:09:56;6.50;99.90
21261;DHT22;10788;47.930;9.766;2023-11-21T09:12:21;6.50;99.90
21261;DHT22;10788;47.930;9.766;2023-11-21T09:14:47;6.60;99.90
21261;DHT22;10788;47.930;9.766;2023-11-21T09:17:13;6.50;99.90
21261;DHT22;10788;47.930;9.766;2023-11-21T09:19:41;6.60;99.90
21261;DHT22;10788;47.930;9.766;2023-11-21T09:22:07;6.50;99.90
21261;DHT22;10788;47.930;9.766;2023-11-21T09:24:35;6.50;99.90
21261;DHT22;10788;47.930;9.766;2023-11-21T09:27:00;6.60;99.90
21261;DHT22;10788;47.930;9.766;2023-11-21T09:29:27;6.60;99.90
21261;DHT22;10788;47.930;9.766;2023-11-21T09:31:52;6.60;99.90
21261;DHT22;10788;47.930;9.766;2023-11-21T09:34:20;6.70;99.90
21261;DHT22;10788;47.930;9.766;2023-11-21T09:36:46;6.80;99.90
21261;DHT22;10788;47.930;9.766;2023-11-21T09:39:12;6.70;99.90
21261;DHT22;10788;47.930;9.766;2023-11-21T09:44:18;6.80;99.90
21261;DHT22;10788;47.930;9.766;2023-11-21T09:46:44;6.80;99.90
21261;DHT22;10788;47.930;9.766;2023-11-21T09:49:14;6.90;99.90
21261;DHT22;10788;47.930;9.766;2023-11-21T09:51:42;7.00;99.90
21261;DHT22;10788;47.930;9.766;2023-11-21T09:54:10;6.90;99.90
21261;DHT22;10788;47.930;9.766;2023-11-21T09:56:37;7.00;99.90
21261;DHT22;10788;47.930;9.766;2023-11-21T09:59:03;7.00;99.90
21261;DHT22;10788;47.930;9.766;2023-11-21T10:01:33;7.00;99.90
21261;DHT22;10788;47.930;9.766;2023-11-21T10:04:01;7.00;99.90
21261;DHT22;10788;47.930;9.766;2023-11-21T10:06:26;7.00;99.90
21261;DHT22;10788;47.930;9.766;2023-11-21T10:08:54;7.10;99.90
21261;DHT22;10788;47.930;9.766;2023-11-21T10:11:24;7.30;99.90
21261;DHT22;10788;47.930;9.766;2023-11-21T10:13:53;7.20;99.90
21261;DHT22;10788;47.930;9.766;2023-11-21T10:16:19;7.20;99.90
21261;DHT22;10788;47.930;9.766;2023-11-21T10:18:53;7.10;99.90
21261;DHT22;10788;47.930;9.766;2023-11-21T10:21:21;7.10;99.90
21261;DHT22;10788;47.930;9.766;2023-11-21T10:23:47;7.10;99.90
21261;DHT22;10788;47.930;9.766;2023-11-21T10:26:13;7.20;99.90
21261;DHT22;10788;47.930;9.766;2023-11-21T10:28:54;7.20;99.90
21261;DHT22;10788;47.930;9.766;2023-11-21T10:31:21;7.20;99.90
21261;DHT22;10788;47.930;9.766;2023-11-21T10:33:46;7.20;99.90
21261;DHT22;10788;47.930;9.766;2023-11-21T10:36:12;7.40;99.90
21261;DHT22;10788;47.930;9.766;2023-11-21T10:38:43;7.50;99.90
21261;DHT22;10788;47.930;9.766;2023-11-21T10:41:11;7.50;99.90
21261;DHT22;10788;47.930;9.766;2023-11-21T10:43:40;7.60;99.90
21261;DHT22;10788;47.930;9.766;2023-11-21T10:46:07;7.50;99.90
21261;DHT22;10788;47.930;9.766;2023-11-21T10:48:33;7.50;99.90
21261;DHT22;10788;47.930;9.766;2023-11-21T10:51:09;7.60;99.90
21261;DHT22;10788;47.930;9.766;2023-11-21T10:53:39;7.60;99.90
21261;DHT22;10788;47.930;9.766;2023-11-21T10:56:09;7.50;99.90
21261;DHT22;10788;47.930;9.766;2023-11-21T10:58:37;7.40;99.90
21261;DHT22;10788;47.930;9.766;2023-11-21T11:01:06;7.40;99.90
21261;DHT22;10788;47.930;9.766;2023-11-21T11:03:32;7.40;99.90
21261;DHT22;10788;47.930;9.766;2023-11-21T11:06:02;7.40;99.90
21261;DHT22;10788;47.930;9.766;2023-11-21T11:08:29;7.40;99.90
21261;DHT22;10788;47.930;9.766;2023-11-21T11:10:55;7.40;99.90
21261;DHT22;10788;47.930;9.766;2023-11-21T11:13:21;7.40;99.90
21261;DHT22;10788;47.930;9.766;2023-11-21T11:15:48;7.40;99.90
21261;DHT22;10788;47.930;9.766;2023-11-21T11:18:14;7.50;99.90
21261;DHT22;10788;47.930;9.766;2023-11-21T11:20:43;7.40;99.90
21261;DHT22;10788;47.930;9.766;2023-11-21T11:26:06;7.40;99.90
21261;DHT22;10788;47.930;9.766;2023-11-21T11:36:18;7.50;99.90
21261;DHT22;10788;47.930;9.766;2023-11-21T11:38:47;7.50;99.90
21261;DHT22;10788;47.930;9.766;2023-11-21T11:41:24;7.60;99.90
21261;DHT22;10788;47.930;9.766;2023-11-21T11:43:51;7.60;99.90
21261;DHT22;10788;47.930;9.766;2023-11-21T11:46:16;7.70;99.90
21261;DHT22;10788;47.930;9.766;2023-11-21T11:48:42;7.80;99.90
21261;DHT22;10788;47.930;9.766;2023-11-21T11:51:11;7.90;99.90
21261;DHT22;10788;47.930;9.766;2023-11-21T11:53:40;7.90;99.90
21261;DHT22;10788;47.930;9.766;2023-11-21T11:56:19;8.00;99.90
21261;DHT22;10788;47.930;9.766;2023-11-21T11:58:52;8.00;99.90
21261;DHT22;10788;47.930;9.766;2023-11-21T12:01:19;8.00;99.90
21261;DHT22;10788;47.930;9.766;2023-11-21T12:04:05;8.00;99.90
21261;DHT22;10788;47.930;9.766;2023-11-21T12:06:34;8.00;99.90
21261;DHT22;10788;47.930;9.766;2023-11-21T12:09:02;8.00;99.90
21261;DHT22;10788;47.930;9.766;2023-11-21T12:11:31;8.00;99.90
21261;DHT22;10788;47.930;9.766;2023-11-21T12:13:58;7.90;99.90
21261;DHT22;10788;47.930;9.766;2023-11-21T12:16:25;8.00;99.90
21261;DHT22;10788;47.930;9.766;2023-11-21T12:18:53;8.00;99.90
21261;DHT22;10788;47.930;9.766;2023-11-21T12:21:20;8.00;99.90
21261;DHT22;10788;47.930;9.766;2023-11-21T12:23:46;8.00;99.90
21261;DHT22;10788;47.930;9.766;2023-11-21T12:26:13;7.90;99.90
21261;DHT22;10788;47.930;9.766;2023-11-21T12:28:39;7.90;99.90
21261;DHT22;10788;47.930;9.766;2023-11-21T12:31:05;7.90;99.90
21261;DHT22;10788;47.930;9.766;2023-11-21T12:33:35;7.70;99.90
21261;DHT22;10788;47.930;9.766;2023-11-21T12:36:00;7.70;99.90
21261;DHT22;10788;47.930;9.766;2023-11-21T12:38:34;7.70;99.90
21261;DHT22;10788;47.930;9.766;2023-11-21T12:41:00;7.80;99.90
21261;DHT22;10788;47.930;9.766;2023-11-21T12:43:26;7.70;99.90
21261;DHT22;10788;47.930;9.766;2023-11-21T12:46:08;7.70;99.90
21261;DHT22;10788;47.930;9.766;2023-11-21T12:48:37;7.70;99.90
21261;DHT22;10788;47.930;9.766;2023-11-21T12:51:05;7.70;99.90
21261;DHT22;10788;47.930;9.766;2023-11-21T12:53:32;7.70;99.90
21261;DHT22;10788;47.930;9.766;2023-11-21T12:56:13;7.70;99.90
21261;DHT22;10788;47.930;9.766;2023-11-21T12:58:39;7.70;99.90
21261;DHT22;10788;47.930;9.766;2023-11-21T13:01:10;7.60;99.90
21261;DHT22;10788;47.930;9.766;2023-11-21T13:03:40;7.70;99.90
21261;DHT22;10788;47.930;9.766;2023-11-21T13:06:08;7.60;99.90
21261;DHT22;10788;47.930;9.766;2023-11-21T13:08:34;7.50;99.90
21261;DHT22;10788;47.930;9.766;2023-11-21T13:11:00;7.50;99.90
21261;DHT22;10788;47.930;9.766;2023-11-21T13:13:28;7.50;99.90
21261;DHT22;10788;47.930;9.766;2023-11-21T13:15:59;7.60;99.90
21261;DHT22;10788;47.930;9.766;2023-11-21T13:18:30;7.60;99.90
21261;DHT22;10788;47.930;9.766;2023-11-21T13:21:07;7.60;99.90
21261;DHT22;10788;47.930;9.766;2023-11-21T13:23:37;7.70;99.90
21261;DHT22;10788;47.930;9.766;2023-11-21T13:26:04;7.70;99.90
21261;DHT22;10788;47.930;9.766;2023-11-21T13:28:30;7.70;99.90
21261;DHT22;10788;47.930;9.766;2023-11-21T13:31:01;7.70;99.90
21261;DHT22;10788;47.930;9.766;2023-11-21T13:33:47;7.70;99.90
21261;DHT22;10788;47.930;9.766;2023-11-21T13:36:20;7.70;99.90
21261;DHT22;10788;47.930;9.766;2023-11-21T13:38:49;7.60;99.90
21261;DHT22;10788;47.930;9.766;2023-11-21T13:41:15;7.60;99.90
21261;DHT22;10788;47.930;9.766;2023-11-21T13:43:42;7.60;99.90
21261;DHT22;10788;47.930;9.766;2023-11-21T13:46:16;7.50;99.90
21261;DHT22;10788;47.930;9.766;2023-11-21T13:48:48;7.50;99.90
21261;DHT22;10788;47.930;9.766;2023-11-21T13:51:19;7.40;99.90
21261;DHT22;10788;47.930;9.766;2023-11-21T13:53:48;7.30;99.90
21261;DHT22;10788;47.930;9.766;2023-11-21T13:56:17;7.40;99.90
21261;DHT22;10788;47.930;9.766;2023-11-21T13:58:47;7.50;99.90
21261;DHT22;10788;47.930;9.766;2023-11-21T14:01:17;7.30;99.90
21261;DHT22;10788;47.930;9.766;2023-11-21T14:03:59;7.30;99.90
21261;DHT22;10788;47.930;9.766;2023-11-21T14:06:50;7.20;99.90
21261;DHT22;10788;47.930;9.766;2023-11-21T14:09:18;7.30;99.90
21261;DHT22;10788;47.930;9.766;2023-11-21T14:11:51;7.20;99.90
21261;DHT22;10788;47.930;9.766;2023-11-21T14:14:22;7.30;99.90
21261;DHT22;10788;47.930;9.766;2023-11-21T14:16:49;7.30;99.90
21261;DHT22;10788;47.930;9.766;2023-11-21T14:19:16;7.30;99.90
21261;DHT22;10788;47.930;9.766;2023-11-21T14:21:45;7.30;99.90
21261;DHT22;10788;47.930;9.766;2023-11-21T14:24:12;7.30;99.90
21261;DHT22;10788;47.930;9.766;2023-11-21T14:26:41;7.40;99.90
21261;DHT22;10788;47.930;9.766;2023-11-21T14:29:10;7.30;99.90
21261;DHT22;10788;47.930;9.766;2023-11-21T14:31:39;7.30;99.90
21261;DHT22;10788;47.930;9.766;2023-11-21T14:34:07;7.20;99.90
21261;DHT22;10788;47.930;9.766;2023-11-21T14:36:33;7.20;99.90
21261;DHT22;10788;47.930;9.766;2023-11-21T14:38:59;7.20;99.90
21261;DHT22;10788;47.930;9.766;2023-11-21T14:41:24;7.20;99.90
21261;DHT22;10788;47.930;9.766;2023-11-21T14:43:51;7.30;99.90
21261;DHT22;10788;47.930;9.766;2023-11-21T14:46:17;7.20;99.90
21261;DHT22;10788;47.930;9.766;2023-11-21T14:48:45;7.10;99.90
21261;DHT22;10788;47.930;9.766;2023-11-21T14:51:25;7.20;99.90
21261;DHT22;10788;47.930;9.766;2023-11-21T14:53:58;7.10;99.90
21261;DHT22;10788;47.930;9.766;2023-11-21T14:56:32;7.10;99.90
21261;DHT22;10788;47.930;9.766;2023-11-21T14:59:00;7.10;99.90
21261;DHT22;10788;47.930;9.766;2023-11-21T15:01:32;7.10;99.90
21261;DHT22;10788;47.930;9.766;2023-11-21T15:04:18;7.10;99.90
21261;DHT22;10788;47.930;9.766;2023-11-21T15:07:04;7.10;99.90
21261;DHT22;10788;47.930;9.766;2023-11-21T15:09:30;6.90;99.90
21261;DHT22;10788;47.930;9.766;2023-11-21T15:12:00;6.90;99.90
21261;DHT22;10788;47.930;9.766;2023-11-21T15:14:46;6.80;99.90
21261;DHT22;10788;47.930;9.766;2023-11-21T15:17:14;6.90;99.90
21261;DHT22;10788;47.930;9.766;2023-11-21T15:19:54;6.90;99.90
21261;DHT22;10788;47.930;9.766;2023-11-21T15:22:20;6.90;99.90
21261;DHT22;10788;47.930;9.766;2023-11-21T15:24:47;6.80;99.90
21261;DHT22;10788;47.930;9.766;2023-11-21T15:27:15;6.80;99.90
21261;DHT22;10788;47.930;9.766;2023-11-21T15:29:41;6.80;99.90
21261;DHT22;10788;47.930;9.766;2023-11-21T15:32:08;6.70;99.90
21261;DHT22;10788;47.930;9.766;2023-11-21T15:34:35;6.70;99.90
21261;DHT22;10788;47.930;9.766;2023-11-21T15:37:01;6.70;99.90
21261;DHT22;10788;47.930;9.766;2023-11-21T15:39:28;6.80;99.90
21261;DHT22;10788;47.930;9.766;2023-11-21T15:41:56;6.80;99.90
21261;DHT22;10788;47.930;9.766;2023-11-21T15:44:22;6.80;99.90
21261;DHT22;10788;47.930;9.766;2023-11-21T15:46:48;6.90;99.90
21261;DHT22;10788;47.930;9.766;2023-11-21T15:49:14;6.80;99.90
21261;DHT22;10788;47.930;9.766;2023-11-21T15:51:43;6.70;99.90
21261;DHT22;10788;47.930;9.766;2023-11-21T15:54:28;6.80;99.90
21261;DHT22;10788;47.930;9.766;2023-11-21T15:56:54;6.80;99.90
21261;DHT22;10788;47.930;9.766;2023-11-21T15:59:25;6.80;99.90